sensor_id;sensor_type;location;lat;lon;timestamp;pressure;altitude;pressure_sealevel;temperature;humidity
40948;BME280;49382;-25.924;28.194;2023-02-18T00:00:20;84733.75;;;21.97;48.94
40948;BME280;49382;-25.924;28.194;2023-02-18T00:02:45;84732.36;;;22.30;48.78
40948;BME280;49382;-25.924;28.194;2023-02-18T00:05:11;84726.01;;;21.41;50.47
40948;BME280;49382;-25.924;28.194;2023-02-18T00:07:38;84726.81;;;20.84;52.57
40948;BME280;49382;-25.924;28.194;2023-02-18T00:10:03;84726.71;;;20.80;52.14
40948;BME280;49382;-25.924;28.194;2023-02-18T00:12:29;84723.99;;;21.12;52.24
40948;BME280;49382;-25.924;28.194;2023-02-18T00:14:54;84720.11;;;21.84;49.60
40948;BME280;49382;-25.924;28.194;2023-02-18T00:17:19;84712.77;;;21.32;50.91
40948;BME280;49382;-25.924;28.194;2023-02-18T00:19:45;84710.85;;;21.92;49.63
40948;BME280;49382;-25.924;28.194;2023-02-18T00:22:10;84708.72;;;21.40;50.21
40948;BME280;49382;-25.924;28.194;2023-02-18T00:24:36;84708.51;;;20.76;51.88
40948;BME280;49382;-25.924;28.194;2023-02-18T00:27:02;84705.33;;;21.09;51.21
40948;BME280;49382;-25.924;28.194;2023-02-18T00:29:28;84703.12;;;20.99;51.96
40948;BME280;49382;-25.924;28.194;2023-02-18T00:31:53;84699.80;;;21.14;51.78
40948;BME280;49382;-25.924;28.194;2023-02-18T00:34:19;84697.44;;;21.85;50.30
40948;BME280;49382;-25.924;28.194;2023-02-18T00:36:45;84699.98;;;20.93;51.55
40948;BME280;49382;-25.924;28.194;2023-02-18T00:39:11;84701.71;;;21.82;50.44
40948;BME280;49382;-25.924;28.194;2023-02-18T00:41:37;84701.02;;;21.34;51.03
40948;BME280;49382;-25.924;28.194;2023-02-18T00:44:02;84705.31;;;22.13;48.59
40948;BME280;49382;-25.924;28.194;2023-02-18T00:46:29;84701.72;;;21.31;51.13
40948;BME280;49382;-25.924;28.194;2023-02-18T00:48:54;84697.72;;;21.65;50.75
40948;BME280;49382;-25.924;28.194;2023-02-18T00:51:20;84694.54;;;20.87;51.86
40948;BME280;49382;-25.924;28.194;2023-02-18T00:53:45;84689.55;;;22.97;47.49
40948;BME280;49382;-25.924;28.194;2023-02-18T00:56:11;84684.43;;;21.43;50.45
40948;BME280;49382;-25.924;28.194;2023-02-18T00:58:37;84681.03;;;21.59;50.48
40948;BME280;49382;-25.924;28.194;2023-02-18T01:01:03;84680.77;;;20.28;52.93
40948;BME280;49382;-25.924;28.194;2023-02-18T01:03:28;84678.81;;;20.75;52.40
40948;BME280;49382;-25.924;28.194;2023-02-18T01:05:54;84679.73;;;20.24;52.32
40948;BME280;49382;-25.924;28.194;2023-02-18T01:08:21;84679.96;;;20.43;52.59
40948;BME280;49382;-25.924;28.194;2023-02-18T01:10:48;84683.52;;;22.08;49.32
40948;BME280;49382;-25.924;28.194;2023-02-18T01:13:12;84682.72;;;21.18;51.31
40948;BME280;49382;-25.924;28.194;2023-02-18T01:15:37;84682.48;;;21.43;50.65
40948;BME280;49382;-25.924;28.194;2023-02-18T01:18:02;84685.95;;;20.96;50.80
40948;BME280;49382;-25.924;28.194;2023-02-18T01:20:27;84687.54;;;21.89;49.05
40948;BME280;49382;-25.924;28.194;2023-02-18T01:22:53;84684.93;;;20.48;51.99
40948;BME280;49382;-25.924;28.194;2023-02-18T01:25:19;84687.18;;;19.82;53.43
40948;BME280;49382;-25.924;28.194;2023-02-18T01:27:45;84683.04;;;19.93;53.85
40948;BME280;49382;-25.924;28.194;2023-02-18T01:30:14;84682.96;;;20.89;51.57
40948;BME280;49382;-25.924;28.194;2023-02-18T01:32:36;84678.04;;;20.33;53.26
40948;BME280;49382;-25.924;28.194;2023-02-18T01:35:03;84676.85;;;20.02;53.51
40948;BME280;49382;-25.924;28.194;2023-02-18T01:37:28;84672.05;;;20.49;52.30
40948;BME280;49382;-25.924;28.194;2023-02-18T01:39:54;84674.76;;;20.99;51.57
40948;BME280;49382;-25.924;28.194;2023-02-18T01:42:21;84675.35;;;20.61;51.79
40948;BME280;49382;-25.924;28.194;2023-02-18T01:44:46;84675.24;;;20.54;51.99
40948;BME280;49382;-25.924;28.194;2023-02-18T01:47:10;84679.12;;;20.71;51.70
40948;BME280;49382;-25.924;28.194;2023-02-18T01:49:37;84683.54;;;20.47;52.14
40948;BME280;49382;-25.924;28.194;2023-02-18T01:52:04;84685.83;;;20.19;53.42
40948;BME280;49382;-25.924;28.194;2023-02-18T01:54:29;84689.41;;;21.10;51.27
40948;BME280;49382;-25.924;28.194;2023-02-18T01:56:56;84687.93;;;20.42;52.18
40948;BME280;49382;-25.924;28.194;2023-02-18T01:59:24;84685.29;;;20.48;52.36
40948;BME280;49382;-25.924;28.194;2023-02-18T02:01:45;84689.45;;;21.09;51.14
40948;BME280;49382;-25.924;28.194;2023-02-18T02:04:11;84688.10;;;20.44;52.25
40948;BME280;49382;-25.924;28.194;2023-02-18T02:06:36;84687.98;;;20.65;51.71
40948;BME280;49382;-25.924;28.194;2023-02-18T02:09:04;84684.28;;;21.41;49.68
40948;BME280;49382;-25.924;28.194;2023-02-18T02:11:53;84686.88;;;20.96;51.10
40948;BME280;49382;-25.924;28.194;2023-02-18T02:14:06;84683.01;;;20.90;51.14
40948;BME280;49382;-25.924;28.194;2023-02-18T02:16:25;84679.46;;;21.18;50.18
40948;BME280;49382;-25.924;28.194;2023-02-18T02:18:53;84681.81;;;20.43;51.58
40948;BME280;49382;-25.924;28.194;2023-02-18T02:35:51;84684.00;;;21.83;48.94
40948;BME280;49382;-25.924;28.194;2023-02-18T02:38:15;84684.92;;;20.00;51.61
40948;BME280;49382;-25.924;28.194;2023-02-18T02:40:42;84689.03;;;20.84;50.59
40948;BME280;49382;-25.924;28.194;2023-02-18T02:43:09;84687.41;;;21.20;49.74
40948;BME280;49382;-25.924;28.194;2023-02-18T02:45:35;84691.55;;;21.50;50.24
40948;BME280;49382;-25.924;28.194;2023-02-18T02:47:58;84689.98;;;20.86;51.59
40948;BME280;49382;-25.924;28.194;2023-02-18T02:50:25;84688.96;;;19.72;53.56
40948;BME280;49382;-25.924;28.194;2023-02-18T02:52:49;84689.53;;;20.15;53.11
40948;BME280;49382;-25.924;28.194;2023-02-18T02:55:11;84689.21;;;21.61;49.79
40948;BME280;49382;-25.924;28.194;2023-02-18T02:57:42;84690.67;;;21.04;50.83
40948;BME280;49382;-25.924;28.194;2023-02-18T03:00:04;84689.17;;;20.68;51.52
40948;BME280;49382;-25.924;28.194;2023-02-18T03:02:32;84690.78;;;20.97;51.05
40948;BME280;49382;-25.924;28.194;2023-02-18T03:05:02;84691.23;;;20.80;51.35
40948;BME280;49382;-25.924;28.194;2023-02-18T03:07:27;84694.14;;;21.13;50.60
40948;BME280;49382;-25.924;28.194;2023-02-18T03:09:53;84701.94;;;21.66;49.69
40948;BME280;49382;-25.924;28.194;2023-02-18T03:12:14;84711.90;;;20.53;51.69
40948;BME280;49382;-25.924;28.194;2023-02-18T03:14:38;84719.35;;;20.97;51.08
40948;BME280;49382;-25.924;28.194;2023-02-18T03:17:02;84723.45;;;20.92;50.71
40948;BME280;49382;-25.924;28.194;2023-02-18T03:19:28;84727.21;;;21.43;49.84
40948;BME280;49382;-25.924;28.194;2023-02-18T03:21:52;84728.03;;;21.03;50.21
40948;BME280;49382;-25.924;28.194;2023-02-18T03:24:19;84728.76;;;21.25;50.31
40948;BME280;49382;-25.924;28.194;2023-02-18T03:26:46;84727.15;;;20.46;51.57
40948;BME280;49382;-25.924;28.194;2023-02-18T03:29:07;84728.77;;;21.42;48.98
40948;BME280;49382;-25.924;28.194;2023-02-18T03:31:31;84726.98;;;20.89;50.49
40948;BME280;49382;-25.924;28.194;2023-02-18T03:34:01;84723.84;;;21.35;49.51
40948;BME280;49382;-25.924;28.194;2023-02-18T03:36:23;84723.40;;;21.44;49.44
40948;BME280;49382;-25.924;28.194;2023-02-18T03:38:52;84719.47;;;21.04;50.13
40948;BME280;49382;-25.924;28.194;2023-02-18T03:41:13;84717.47;;;22.19;47.94
40948;BME280;49382;-25.924;28.194;2023-02-18T03:43:41;84717.17;;;20.87;51.05
40948;BME280;49382;-25.924;28.194;2023-02-18T03:46:04;84719.21;;;21.79;49.28
40948;BME280;49382;-25.924;28.194;2023-02-18T03:48:29;84720.29;;;21.11;49.81
40948;BME280;49382;-25.924;28.194;2023-02-18T03:50:55;84720.19;;;21.28;50.45
40948;BME280;49382;-25.924;28.194;2023-02-18T03:53:21;84718.83;;;20.26;52.67
40948;BME280;49382;-25.924;28.194;2023-02-18T03:55:46;84721.21;;;20.42;52.01
40948;BME280;49382;-25.924;28.194;2023-02-18T03:58:11;84726.08;;;21.17;50.86
40948;BME280;49382;-25.924;28.194;2023-02-18T04:00:37;84729.07;;;20.25;51.67
40948;BME280;49382;-25.924;28.194;2023-02-18T04:03:03;84732.07;;;20.02;52.14
40948;BME280;49382;-25.924;28.194;2023-02-18T04:05:28;84739.08;;;20.61;50.87
40948;BME280;49382;-25.924;28.194;2023-02-18T04:07:53;84740.77;;;20.64;50.90
40948;BME280;49382;-25.924;28.194;2023-02-18T04:10:19;84745.60;;;20.23;51.69
40948;BME280;49382;-25.924;28.194;2023-02-18T04:12:44;84748.84;;;20.18;52.34
40948;BME280;49382;-25.924;28.194;2023-02-18T04:15:09;84754.87;;;20.39;51.67
40948;BME280;49382;-25.924;28.194;2023-02-18T04:17:34;84757.13;;;20.53;51.55
40948;BME280;49382;-25.924;28.194;2023-02-18T04:20:00;84763.42;;;20.28;52.62
40948;BME280;49382;-25.924;28.194;2023-02-18T04:22:26;84765.63;;;20.02;52.94
40948;BME280;49382;-25.924;28.194;2023-02-18T04:24:51;84766.61;;;20.33;52.61
40948;BME280;49382;-25.924;28.194;2023-02-18T04:27:17;84771.18;;;20.90;51.40
40948;BME280;49382;-25.924;28.194;2023-02-18T04:29:43;84774.09;;;20.83;50.84
40948;BME280;49382;-25.924;28.194;2023-02-18T04:32:08;84776.04;;;21.83;49.35
40948;BME280;49382;-25.924;28.194;2023-02-18T04:34:33;84777.38;;;20.85;50.90
40948;BME280;49382;-25.924;28.194;2023-02-18T04:36:58;84779.16;;;20.59;51.17
40948;BME280;49382;-25.924;28.194;2023-02-18T04:39:24;84778.74;;;20.63;51.38
40948;BME280;49382;-25.924;28.194;2023-02-18T04:41:49;84777.62;;;19.95;53.16
40948;BME280;49382;-25.924;28.194;2023-02-18T04:44:14;84776.82;;;20.45;51.63
40948;BME280;49382;-25.924;28.194;2023-02-18T04:46:40;84774.91;;;20.56;53.26
40948;BME280;49382;-25.924;28.194;2023-02-18T04:49:05;84778.22;;;21.48;50.14
40948;BME280;49382;-25.924;28.194;2023-02-18T04:51:31;84775.57;;;21.11;50.32
40948;BME280;49382;-25.924;28.194;2023-02-18T04:53:57;84775.95;;;21.36;49.96
40948;BME280;49382;-25.924;28.194;2023-02-18T04:56:22;84774.06;;;20.71;51.24
40948;BME280;49382;-25.924;28.194;2023-02-18T04:58:47;84776.31;;;20.93;50.79
40948;BME280;49382;-25.924;28.194;2023-02-18T05:01:13;84776.35;;;20.62;51.78
40948;BME280;49382;-25.924;28.194;2023-02-18T05:03:38;84776.92;;;20.56;51.87
40948;BME280;49382;-25.924;28.194;2023-02-18T05:06:04;84780.66;;;20.64;51.44
40948;BME280;49382;-25.924;28.194;2023-02-18T05:08:30;84778.09;;;20.75;50.92
40948;BME280;49382;-25.924;28.194;2023-02-18T05:10:55;84779.55;;;21.87;48.98
40948;BME280;49382;-25.924;28.194;2023-02-18T05:13:21;84782.79;;;20.78;50.92
40948;BME280;49382;-25.924;28.194;2023-02-18T05:15:47;84786.31;;;20.48;51.93
40948;BME280;49382;-25.924;28.194;2023-02-18T05:18:13;84786.76;;;21.18;50.33
40948;BME280;49382;-25.924;28.194;2023-02-18T05:20:39;84790.89;;;21.97;49.46
40948;BME280;49382;-25.924;28.194;2023-02-18T05:23:04;84790.64;;;21.11;50.30
40948;BME280;49382;-25.924;28.194;2023-02-18T05:25:30;84789.28;;;20.96;50.47
40948;BME280;49382;-25.924;28.194;2023-02-18T05:27:56;84790.69;;;20.83;51.31
40948;BME280;49382;-25.924;28.194;2023-02-18T05:30:22;84789.17;;;20.62;51.79
40948;BME280;49382;-25.924;28.194;2023-02-18T05:32:47;84789.02;;;21.31;49.64
40948;BME280;49382;-25.924;28.194;2023-02-18T05:35:13;84788.25;;;21.31;49.43
40948;BME280;49382;-25.924;28.194;2023-02-18T05:37:39;84790.53;;;21.03;50.20
40948;BME280;49382;-25.924;28.194;2023-02-18T05:40:06;84795.58;;;21.18;49.60
40948;BME280;49382;-25.924;28.194;2023-02-18T05:42:31;84796.57;;;21.31;50.63
40948;BME280;49382;-25.924;28.194;2023-02-18T05:44:56;84798.34;;;21.82;49.47
40948;BME280;49382;-25.924;28.194;2023-02-18T05:47:22;84801.63;;;21.68;48.81
40948;BME280;49382;-25.924;28.194;2023-02-18T05:49:48;84803.45;;;21.42;49.50
40948;BME280;49382;-25.924;28.194;2023-02-18T05:52:13;84806.86;;;22.08;48.71
40948;BME280;49382;-25.924;28.194;2023-02-18T05:54:39;84804.88;;;21.40;49.62
40948;BME280;49382;-25.924;28.194;2023-02-18T05:57:05;84812.57;;;20.72;50.88
40948;BME280;49382;-25.924;28.194;2023-02-18T05:59:31;84815.68;;;22.33;48.06
40948;BME280;49382;-25.924;28.194;2023-02-18T06:01:57;84819.63;;;21.98;48.32
40948;BME280;49382;-25.924;28.194;2023-02-18T06:04:23;84814.01;;;21.26;50.16
40948;BME280;49382;-25.924;28.194;2023-02-18T06:06:48;84815.62;;;21.38;49.26
40948;BME280;49382;-25.924;28.194;2023-02-18T06:09:14;84815.51;;;21.35;49.41
40948;BME280;49382;-25.924;28.194;2023-02-18T06:11:40;84815.75;;;21.38;50.28
40948;BME280;49382;-25.924;28.194;2023-02-18T06:14:05;84818.47;;;21.27;50.02
40948;BME280;49382;-25.924;28.194;2023-02-18T06:16:31;84819.94;;;21.89;48.44
40948;BME280;49382;-25.924;28.194;2023-02-18T06:18:57;84825.50;;;21.45;49.18
40948;BME280;49382;-25.924;28.194;2023-02-18T06:21:23;84827.13;;;21.52;49.00
40948;BME280;49382;-25.924;28.194;2023-02-18T06:23:48;84826.93;;;21.60;48.70
40948;BME280;49382;-25.924;28.194;2023-02-18T06:26:15;84826.49;;;21.63;48.72
40948;BME280;49382;-25.924;28.194;2023-02-18T06:28:40;84829.18;;;22.05;47.95
40948;BME280;49382;-25.924;28.194;2023-02-18T06:31:06;84825.75;;;22.33;47.24
40948;BME280;49382;-25.924;28.194;2023-02-18T06:33:31;84823.43;;;21.78;48.14
40948;BME280;49382;-25.924;28.194;2023-02-18T06:35:59;84820.57;;;22.76;46.28
40948;BME280;49382;-25.924;28.194;2023-02-18T06:38:24;84825.07;;;22.01;47.54
40948;BME280;49382;-25.924;28.194;2023-02-18T06:40:49;84821.40;;;21.85;48.12
40948;BME280;49382;-25.924;28.194;2023-02-18T06:43:14;84820.49;;;21.51;48.53
40948;BME280;49382;-25.924;28.194;2023-02-18T06:45:40;84820.24;;;23.03;45.76
40948;BME280;49382;-25.924;28.194;2023-02-18T06:48:06;84820.60;;;21.94;46.75
40948;BME280;49382;-25.924;28.194;2023-02-18T06:50:32;84819.27;;;21.70;48.32
40948;BME280;49382;-25.924;28.194;2023-02-18T06:52:57;84825.41;;;21.93;48.63
40948;BME280;49382;-25.924;28.194;2023-02-18T06:55:24;84830.81;;;22.06;47.41
40948;BME280;49382;-25.924;28.194;2023-02-18T06:57:49;84832.35;;;22.33;46.74
40948;BME280;49382;-25.924;28.194;2023-02-18T07:00:15;84836.46;;;22.63;46.79
40948;BME280;49382;-25.924;28.194;2023-02-18T07:02:40;84837.16;;;21.85;47.21
40948;BME280;49382;-25.924;28.194;2023-02-18T07:05:06;84834.91;;;21.79;47.95
40948;BME280;49382;-25.924;28.194;2023-02-18T07:07:32;84834.36;;;21.12;49.31
40948;BME280;49382;-25.924;28.194;2023-02-18T07:09:58;84832.73;;;22.73;46.70
40948;BME280;49382;-25.924;28.194;2023-02-18T07:12:23;84833.13;;;22.70;46.48
40948;BME280;49382;-25.924;28.194;2023-02-18T07:14:49;84832.56;;;22.08;47.93
40948;BME280;49382;-25.924;28.194;2023-02-18T07:17:15;84824.92;;;22.42;46.72
40948;BME280;49382;-25.924;28.194;2023-02-18T07:19:41;84828.11;;;23.27;45.48
40948;BME280;49382;-25.924;28.194;2023-02-18T07:22:06;84830.16;;;22.43;46.93
40948;BME280;49382;-25.924;28.194;2023-02-18T07:24:32;84837.67;;;23.54;45.52
40948;BME280;49382;-25.924;28.194;2023-02-18T07:26:58;84833.95;;;22.63;46.30
40948;BME280;49382;-25.924;28.194;2023-02-18T07:29:24;84836.33;;;22.11;47.30
40948;BME280;49382;-25.924;28.194;2023-02-18T07:31:49;84837.67;;;21.96;48.51
40948;BME280;49382;-25.924;28.194;2023-02-18T07:34:15;84836.27;;;22.40;48.34
40948;BME280;49382;-25.924;28.194;2023-02-18T07:36:40;84840.87;;;22.59;47.75
40948;BME280;49382;-25.924;28.194;2023-02-18T07:39:06;84839.21;;;21.92;48.47
40948;BME280;49382;-25.924;28.194;2023-02-18T07:41:32;84839.70;;;22.37;47.61
40948;BME280;49382;-25.924;28.194;2023-02-18T07:43:58;84839.48;;;22.06;48.31
40948;BME280;49382;-25.924;28.194;2023-02-18T07:46:24;84836.11;;;22.22;47.94
40948;BME280;49382;-25.924;28.194;2023-02-18T07:48:49;84841.99;;;22.39;48.44
40948;BME280;49382;-25.924;28.194;2023-02-18T07:51:15;84840.45;;;22.37;48.00
40948;BME280;49382;-25.924;28.194;2023-02-18T07:53:41;84841.82;;;22.04;48.39
40948;BME280;49382;-25.924;28.194;2023-02-18T07:56:07;84847.57;;;23.57;45.64
40948;BME280;49382;-25.924;28.194;2023-02-18T07:58:34;84844.85;;;22.01;47.72
40948;BME280;49382;-25.924;28.194;2023-02-18T08:00:59;84844.99;;;22.27;48.27
40948;BME280;49382;-25.924;28.194;2023-02-18T08:03:25;84841.84;;;22.66;48.01
40948;BME280;49382;-25.924;28.194;2023-02-18T08:05:50;84844.82;;;22.73;47.17
40948;BME280;49382;-25.924;28.194;2023-02-18T08:08:17;84849.15;;;23.75;45.42
40948;BME280;49382;-25.924;28.194;2023-02-18T08:10:42;84844.75;;;23.13;45.82
40948;BME280;49382;-25.924;28.194;2023-02-18T08:13:07;84843.63;;;22.88;45.51
40948;BME280;49382;-25.924;28.194;2023-02-18T08:15:32;84842.55;;;22.71;46.62
40948;BME280;49382;-25.924;28.194;2023-02-18T08:17:58;84838.02;;;22.94;46.51
40948;BME280;49382;-25.924;28.194;2023-02-18T08:20:24;84836.43;;;22.40;46.99
40948;BME280;49382;-25.924;28.194;2023-02-18T08:22:50;84833.41;;;22.86;46.37
40948;BME280;49382;-25.924;28.194;2023-02-18T08:25:16;84842.08;;;23.50;45.35
40948;BME280;49382;-25.924;28.194;2023-02-18T08:27:41;84843.97;;;24.59;43.25
40948;BME280;49382;-25.924;28.194;2023-02-18T08:30:08;84843.14;;;23.49;45.51
40948;BME280;49382;-25.924;28.194;2023-02-18T08:32:34;84846.83;;;23.71;45.29
40948;BME280;49382;-25.924;28.194;2023-02-18T08:34:58;84842.75;;;23.48;44.90
40948;BME280;49382;-25.924;28.194;2023-02-18T08:37:24;84844.99;;;22.39;47.10
40948;BME280;49382;-25.924;28.194;2023-02-18T08:39:50;84838.82;;;22.47;47.12
40948;BME280;49382;-25.924;28.194;2023-02-18T08:42:16;84846.46;;;23.40;45.40
40948;BME280;49382;-25.924;28.194;2023-02-18T08:44:42;84842.97;;;22.30;46.57
40948;BME280;49382;-25.924;28.194;2023-02-18T08:47:07;84837.10;;;22.78;46.11
40948;BME280;49382;-25.924;28.194;2023-02-18T08:49:33;84835.47;;;23.05;45.08
40948;BME280;49382;-25.924;28.194;2023-02-18T08:51:59;84833.74;;;23.09;45.10
40948;BME280;49382;-25.924;28.194;2023-02-18T08:54:25;84827.88;;;23.04;45.40
40948;BME280;49382;-25.924;28.194;2023-02-18T08:56:54;84830.40;;;22.82;45.74
40948;BME280;49382;-25.924;28.194;2023-02-18T08:59:16;84836.44;;;24.34;43.00
40948;BME280;49382;-25.924;28.194;2023-02-18T09:01:42;84836.26;;;23.32;45.84
40948;BME280;49382;-25.924;28.194;2023-02-18T09:04:08;84834.26;;;24.04;44.30
40948;BME280;49382;-25.924;28.194;2023-02-18T09:06:37;84835.90;;;24.44;43.51
40948;BME280;49382;-25.924;28.194;2023-02-18T09:08:59;84828.16;;;23.90;44.17
40948;BME280;49382;-25.924;28.194;2023-02-18T09:11:25;84823.00;;;23.47;45.16
40948;BME280;49382;-25.924;28.194;2023-02-18T09:13:50;84824.55;;;24.53;44.25
40948;BME280;49382;-25.924;28.194;2023-02-18T09:16:17;84821.35;;;24.09;46.11
40948;BME280;49382;-25.924;28.194;2023-02-18T09:18:43;84822.73;;;25.01;43.40
40948;BME280;49382;-25.924;28.194;2023-02-18T09:21:10;84820.69;;;24.81;43.61
40948;BME280;49382;-25.924;28.194;2023-02-18T09:23:34;84823.42;;;24.76;43.76
40948;BME280;49382;-25.924;28.194;2023-02-18T09:25:58;84822.40;;;24.37;43.75
40948;BME280;49382;-25.924;28.194;2023-02-18T09:28:25;84818.14;;;24.19;44.00
40948;BME280;49382;-25.924;28.194;2023-02-18T09:30:51;84820.34;;;24.71;43.99
40948;BME280;49382;-25.924;28.194;2023-02-18T09:33:17;84812.57;;;23.97;44.43
40948;BME280;49382;-25.924;28.194;2023-02-18T09:35:42;84811.84;;;24.44;43.71
40948;BME280;49382;-25.924;28.194;2023-02-18T09:38:08;84811.33;;;25.78;41.81
40948;BME280;49382;-25.924;28.194;2023-02-18T09:40:36;84813.59;;;24.54;43.92
40948;BME280;49382;-25.924;28.194;2023-02-18T09:42:59;84814.05;;;24.21;43.29
40948;BME280;49382;-25.924;28.194;2023-02-18T09:45:25;84811.32;;;24.41;43.92
40948;BME280;49382;-25.924;28.194;2023-02-18T09:47:50;84809.64;;;24.17;43.64
40948;BME280;49382;-25.924;28.194;2023-02-18T09:50:20;84805.68;;;23.96;43.32
40948;BME280;49382;-25.924;28.194;2023-02-18T09:52:42;84802.31;;;25.34;42.17
40948;BME280;49382;-25.924;28.194;2023-02-18T09:55:17;84799.96;;;25.16;41.70
40948;BME280;49382;-25.924;28.194;2023-02-18T09:57:40;84797.90;;;24.54;42.61
40948;BME280;49382;-25.924;28.194;2023-02-18T10:00:02;84800.00;;;24.62;41.64
40948;BME280;49382;-25.924;28.194;2023-02-18T10:02:25;84792.32;;;23.91;43.56
40948;BME280;49382;-25.924;28.194;2023-02-18T10:04:51;84789.67;;;25.03;42.08
40948;BME280;49382;-25.924;28.194;2023-02-18T10:07:22;84785.48;;;25.29;41.44
40948;BME280;49382;-25.924;28.194;2023-02-18T10:09:42;84782.87;;;24.20;41.71
40948;BME280;49382;-25.924;28.194;2023-02-18T10:12:15;84776.30;;;24.99;41.09
40948;BME280;49382;-25.924;28.194;2023-02-18T10:14:34;84779.97;;;25.26;41.53
40948;BME280;49382;-25.924;28.194;2023-02-18T10:17:00;84788.64;;;24.76;42.38
40948;BME280;49382;-25.924;28.194;2023-02-18T10:19:31;84782.66;;;23.99;43.33
40948;BME280;49382;-25.924;28.194;2023-02-18T10:21:51;84783.05;;;24.58;42.16
40948;BME280;49382;-25.924;28.194;2023-02-18T10:24:24;84779.94;;;24.52;43.00
40948;BME280;49382;-25.924;28.194;2023-02-18T10:26:43;84778.60;;;25.21;41.70
40948;BME280;49382;-25.924;28.194;2023-02-18T10:29:15;84777.73;;;24.74;41.78
40948;BME280;49382;-25.924;28.194;2023-02-18T10:31:39;84776.94;;;24.75;41.11
40948;BME280;49382;-25.924;28.194;2023-02-18T10:34:02;84780.44;;;25.81;40.35
40948;BME280;49382;-25.924;28.194;2023-02-18T10:36:28;84781.13;;;24.55;41.90
40948;BME280;49382;-25.924;28.194;2023-02-18T10:39:01;84773.55;;;24.47;43.32
40948;BME280;49382;-25.924;28.194;2023-02-18T10:41:23;84776.26;;;25.45;41.52
40948;BME280;49382;-25.924;28.194;2023-02-18T10:43:46;84777.99;;;24.13;42.92
40948;BME280;49382;-25.924;28.194;2023-02-18T10:46:13;84777.41;;;24.69;41.87
40948;BME280;49382;-25.924;28.194;2023-02-18T10:48:40;84769.80;;;24.77;41.05
40948;BME280;49382;-25.924;28.194;2023-02-18T10:50:59;84774.68;;;24.52;42.26
40948;BME280;49382;-25.924;28.194;2023-02-18T10:53:29;84766.43;;;25.48;41.37
40948;BME280;49382;-25.924;28.194;2023-02-18T10:55:47;84764.31;;;24.46;42.18
40948;BME280;49382;-25.924;28.194;2023-02-18T10:58:27;84760.58;;;24.33;42.40
40948;BME280;49382;-25.924;28.194;2023-02-18T11:00:39;84755.41;;;25.00;41.84
40948;BME280;49382;-25.924;28.194;2023-02-18T11:03:12;84746.62;;;25.35;41.29
40948;BME280;49382;-25.924;28.194;2023-02-18T11:05:28;84742.14;;;24.65;42.62
40948;BME280;49382;-25.924;28.194;2023-02-18T11:07:56;84738.12;;;24.84;42.20
40948;BME280;49382;-25.924;28.194;2023-02-18T11:10:24;84739.65;;;25.69;41.85
40948;BME280;49382;-25.924;28.194;2023-02-18T11:12:47;84736.55;;;24.95;42.28
40948;BME280;49382;-25.924;28.194;2023-02-18T11:15:17;84733.00;;;24.87;42.29
40948;BME280;49382;-25.924;28.194;2023-02-18T11:17:36;84731.11;;;24.27;42.61
40948;BME280;49382;-25.924;28.194;2023-02-18T11:20:18;84724.93;;;24.74;42.60
40948;BME280;49382;-25.924;28.194;2023-02-18T11:22:29;84724.93;;;24.50;42.57
40948;BME280;49382;-25.924;28.194;2023-02-18T11:24:55;84721.51;;;24.98;42.19
40948;BME280;49382;-25.924;28.194;2023-02-18T11:27:23;84719.21;;;24.86;42.91
40948;BME280;49382;-25.924;28.194;2023-02-18T11:29:43;84719.13;;;24.78;42.87
40948;BME280;49382;-25.924;28.194;2023-02-18T11:32:11;84713.45;;;25.86;40.50
40948;BME280;49382;-25.924;28.194;2023-02-18T11:34:33;84709.38;;;25.08;41.85
40948;BME280;49382;-25.924;28.194;2023-02-18T11:37:07;84705.44;;;25.46;40.88
40948;BME280;49382;-25.924;28.194;2023-02-18T11:39:26;84699.83;;;24.28;43.04
40948;BME280;49382;-25.924;28.194;2023-02-18T11:41:55;84702.74;;;24.52;43.19
40948;BME280;49382;-25.924;28.194;2023-02-18T11:44:21;84701.93;;;25.95;40.66
40948;BME280;49382;-25.924;28.194;2023-02-18T11:49:18;84699.58;;;25.55;40.45
40948;BME280;49382;-25.924;28.194;2023-02-18T11:51:34;84697.36;;;25.25;41.56
40948;BME280;49382;-25.924;28.194;2023-02-18T11:54:00;84699.94;;;25.02;42.74
40948;BME280;49382;-25.924;28.194;2023-02-18T11:56:23;84687.80;;;24.10;41.91
40948;BME280;49382;-25.924;28.194;2023-02-18T11:58:48;84679.61;;;24.41;42.37
40948;BME280;49382;-25.924;28.194;2023-02-18T12:01:17;84679.56;;;25.13;40.56
40948;BME280;49382;-25.924;28.194;2023-02-18T12:03:43;84677.86;;;25.79;39.67
40948;BME280;49382;-25.924;28.194;2023-02-18T12:06:11;84676.94;;;25.22;40.36
40948;BME280;49382;-25.924;28.194;2023-02-18T12:08:33;84676.70;;;24.67;41.82
40948;BME280;49382;-25.924;28.194;2023-02-18T12:11:00;84670.73;;;25.28;39.94
40948;BME280;49382;-25.924;28.194;2023-02-18T12:13:24;84665.91;;;24.75;40.38
40948;BME280;49382;-25.924;28.194;2023-02-18T12:15:52;84663.46;;;24.68;40.41
40948;BME280;49382;-25.924;28.194;2023-02-18T12:20:47;84650.84;;;25.49;40.15
40948;BME280;49382;-25.924;28.194;2023-02-18T12:23:09;84649.77;;;25.23;41.96
40948;BME280;49382;-25.924;28.194;2023-02-18T12:25:36;84644.28;;;24.87;41.77
40948;BME280;49382;-25.924;28.194;2023-02-18T12:28:02;84640.98;;;24.15;40.32
40948;BME280;49382;-25.924;28.194;2023-02-18T12:32:48;84631.25;;;24.92;40.39
40948;BME280;49382;-25.924;28.194;2023-02-18T12:35:22;84627.99;;;25.25;40.13
40948;BME280;49382;-25.924;28.194;2023-02-18T12:37:41;84626.35;;;25.33;39.81
40948;BME280;49382;-25.924;28.194;2023-02-18T12:40:07;84625.79;;;25.52;38.95
40948;BME280;49382;-25.924;28.194;2023-02-18T12:42:35;84624.24;;;25.40;39.63
40948;BME280;49382;-25.924;28.194;2023-02-18T12:45:00;84622.98;;;24.49;40.95
40948;BME280;49382;-25.924;28.194;2023-02-18T12:47:31;84627.37;;;25.12;40.54
40948;BME280;49382;-25.924;28.194;2023-02-18T12:49:51;84624.76;;;25.10;40.19
40948;BME280;49382;-25.924;28.194;2023-02-18T12:52:18;84620.55;;;25.78;39.77